Time;durP1;ratioP1;P1;durP2;ratioP2;P2;SDS_P1;SDS_P2;PMS_P1;PMS_P2;Temp;Humidity;BMP_temperature;BMP_pressure;BME280_temperature;BME280_humidity;BME280_pressure;Samples;Min_cycle;Max_cycle;Signal;HPM_P1;HPM_P2
2021/05/07 00:01:46;;;;;;;1.05;0.95;;;8.30;99.90;;;;;;5039704;28;20668;-81
2021/05/07 00:04:17;;;;;;;1.58;1.20;;;8.40;99.90;;;;;;5040011;28;20237;-83
2021/05/07 00:06:43;;;;;;;0.90;0.90;;;8.50;99.90;;;;;;5040196;28;20226;-83
2021/05/07 00:09:10;;;;;;;0.80;0.60;;;8.60;99.90;;;;;;5039870;28;20221;-82
2021/05/07 00:11:36;;;;;;;1.00;1.00;;;8.70;99.90;;;;;;5039816;28;20206;-81
2021/05/07 00:14:03;;;;;;;0.55;0.55;;;8.80;99.90;;;;;;5039938;28;20206;-82
2021/05/07 00:16:29;;;;;;;0.85;0.85;;;8.80;99.90;;;;;;5040355;28;20230;-82
2021/05/07 00:18:56;;;;;;;0.80;0.80;;;8.80;99.90;;;;;;5039468;28;20205;-83
2021/05/07 00:21:24;;;;;;;0.95;0.85;;;8.80;99.90;;;;;;5038853;28;20202;-81
2021/05/07 00:23:51;;;;;;;1.08;1.08;;;8.80;99.90;;;;;;5039171;28;20234;-83
2021/05/07 00:26:17;;;;;;;1.10;1.05;;;8.70;99.90;;;;;;5039432;28;20230;-83
2021/05/07 00:28:43;;;;;;;2.47;1.08;;;8.70;99.90;;;;;;5039656;28;20210;-83
2021/05/07 00:31:09;;;;;;;1.02;1.02;;;8.60;99.90;;;;;;5043025;28;20210;-83
2021/05/07 00:33:36;;;;;;;0.82;0.82;;;8.60;99.90;;;;;;5044547;28;20233;-81
2021/05/07 00:36:02;;;;;;;0.82;0.82;;;8.60;99.90;;;;;;5047938;28;20256;-81
2021/05/07 00:38:29;;;;;;;0.75;0.75;;;8.50;99.90;;;;;;5048667;28;20210;-82
2021/05/07 00:40:55;;;;;;;0.90;0.80;;;8.40;99.90;;;;;;5049745;28;20695;-83
2021/05/07 00:43:21;;;;;;;1.35;1.25;;;8.40;99.90;;;;;;5049810;28;20221;-80
2021/05/07 00:45:47;;;;;;;0.88;0.88;;;8.40;99.90;;;;;;5052055;28;20234;-81
2021/05/07 00:48:16;;;;;;;0.85;0.85;;;8.30;99.90;;;;;;5052000;28;20262;-80
2021/05/07 00:50:44;;;;;;;1.00;1.00;;;8.30;99.90;;;;;;5052870;28;20216;-80
2021/05/07 00:53:11;;;;;;;2.28;1.60;;;8.30;99.90;;;;;;5053279;28;20202;-81
2021/05/07 00:55:39;;;;;;;1.08;1.05;;;8.30;99.90;;;;;;5054771;28;20618;-80
2021/05/07 00:58:06;;;;;;;1.25;1.25;;;8.20;99.90;;;;;;5052946;28;20737;-80
2021/05/07 01:00:33;;;;;;;0.98;0.98;;;8.20;99.90;;;;;;5053854;28;20230;-82
2021/05/07 01:03:00;;;;;;;1.08;1.08;;;8.20;99.90;;;;;;5052460;28;20228;-80
2021/05/07 01:05:27;;;;;;;1.23;1.13;;;8.10;99.90;;;;;;5052670;28;20230;-81
2021/05/07 01:07:54;;;;;;;1.00;1.00;;;8.20;99.90;;;;;;5054173;28;20210;-81
2021/05/07 01:10:22;;;;;;;1.08;0.90;;;8.10;99.90;;;;;;5053230;28;20210;-80
2021/05/07 01:12:50;;;;;;;0.88;0.88;;;8.00;99.90;;;;;;5054014;28;20232;-81
2021/05/07 01:15:18;;;;;;;0.70;0.70;;;8.00;99.90;;;;;;5052951;28;20232;-80
2021/05/07 01:17:45;;;;;;;1.48;1.10;;;8.00;99.90;;;;;;5053776;28;20226;-80
2021/05/07 01:20:14;;;;;;;0.80;0.80;;;7.90;99.90;;;;;;5050574;28;20217;-80
2021/05/07 01:22:41;;;;;;;1.40;1.30;;;8.00;99.90;;;;;;5051009;28;20218;-80
2021/05/07 01:25:09;;;;;;;1.10;1.00;;;8.00;99.90;;;;;;5052228;28;20256;-80
2021/05/07 01:27:38;;;;;;;1.05;1.05;;;8.00;99.90;;;;;;5050420;28;20238;-80
2021/05/07 01:30:13;;;;;;;0.80;0.80;;;8.00;99.90;;;;;;5051493;28;20210;-80
2021/05/07 01:32:39;;;;;;;0.98;0.98;;;8.10;99.90;;;;;;5050995;28;20206;-82
2021/05/07 01:35:09;;;;;;;1.13;0.90;;;8.00;99.90;;;;;;5053535;28;20207;-80
2021/05/07 01:37:37;;;;;;;2.30;1.75;;;8.00;99.90;;;;;;5050525;28;20313;-80
2021/05/07 01:40:10;;;;;;;1.00;0.95;;;8.00;99.90;;;;;;5052254;28;20206;-80
2021/05/07 01:42:37;;;;;;;1.42;1.33;;;8.10;99.90;;;;;;5051532;28;20205;-79
2021/05/07 01:45:04;;;;;;;1.20;1.15;;;8.10;99.90;;;;;;5054088;28;20222;-80
2021/05/07 01:47:30;;;;;;;0.90;0.90;;;8.10;99.90;;;;;;5054959;28;20226;-80
2021/05/07 01:49:56;;;;;;;1.20;0.90;;;8.00;99.90;;;;;;5054152;28;20233;-80
2021/05/07 01:52:23;;;;;;;1.55;1.10;;;7.90;99.90;;;;;;5054579;28;20220;-80
2021/05/07 01:54:50;;;;;;;1.15;1.05;;;7.90;99.90;;;;;;5054545;28;20220;-80
2021/05/07 01:57:16;;;;;;;2.58;1.10;;;7.80;99.90;;;;;;5055498;28;20234;-79
2021/05/07 01:59:42;;;;;;;1.50;1.00;;;7.60;99.90;;;;;;5056629;28;20648;-79
2021/05/07 02:02:09;;;;;;;1.30;1.20;;;7.60;99.90;;;;;;5059386;28;20210;-79
2021/05/07 02:04:35;;;;;;;1.00;1.00;;;7.50;99.90;;;;;;5058582;28;20230;-80
2021/05/07 02:07:01;;;;;;;1.02;1.02;;;7.50;99.90;;;;;;5058590;28;20225;-79
2021/05/07 02:09:27;;;;;;;1.25;1.17;;;7.60;99.90;;;;;;5058766;28;20207;-81
2021/05/07 02:11:55;;;;;;;1.40;1.13;;;7.60;99.90;;;;;;5058666;28;20211;-80
2021/05/07 02:14:21;;;;;;;0.90;0.90;;;7.60;99.90;;;;;;5058496;28;20199;-80
2021/05/07 02:16:47;;;;;;;1.65;1.55;;;7.70;99.90;;;;;;5058169;28;20226;-80
2021/05/07 02:19:13;;;;;;;1.45;1.10;;;7.70;99.90;;;;;;5058778;28;20190;-81
2021/05/07 02:21:39;;;;;;;1.05;0.98;;;7.70;99.90;;;;;;5059022;28;20621;-79
2021/05/07 02:24:06;;;;;;;1.30;1.30;;;7.60;99.90;;;;;;5059179;28;20233;-80
2021/05/07 02:26:32;;;;;;;0.77;0.77;;;7.50;99.90;;;;;;5058020;28;20296;-79
2021/05/07 02:29:00;;;;;;;1.20;1.10;;;7.60;99.90;;;;;;5058749;28;20217;-79
2021/05/07 02:31:26;;;;;;;1.35;1.10;;;7.60;99.90;;;;;;5055488;28;20211;-80
2021/05/07 02:33:52;;;;;;;0.95;0.95;;;7.60;99.90;;;;;;5057429;28;20217;-81
2021/05/07 02:36:18;;;;;;;1.60;1.50;;;7.60;99.90;;;;;;5057187;28;20361;-80
2021/05/07 02:38:44;;;;;;;1.70;1.60;;;7.60;99.90;;;;;;5056882;28;20210;-80
2021/05/07 02:41:11;;;;;;;1.33;0.90;;;7.60;99.90;;;;;;5056335;28;20240;-80
2021/05/07 02:43:37;;;;;;;1.50;1.27;;;7.70;99.90;;;;;;5056625;28;20270;-79
2021/05/07 02:46:04;;;;;;;1.40;1.30;;;7.70;99.90;;;;;;5056581;28;20248;-80
2021/05/07 02:48:30;;;;;;;1.38;1.27;;;7.70;99.90;;;;;;5057486;28;20206;-81
2021/05/07 02:50:57;;;;;;;1.30;1.30;;;7.70;99.90;;;;;;5057596;28;20206;-80
2021/05/07 02:53:23;;;;;;;1.23;1.15;;;7.60;99.90;;;;;;5057514;28;20198;-80
2021/05/07 02:55:49;;;;;;;1.00;1.00;;;7.60;99.90;;;;;;5057120;28;20797;-79
2021/05/07 02:58:15;;;;;;;1.05;1.05;;;7.70;99.90;;;;;;5057962;28;20210;-79
2021/05/07 03:00:42;;;;;;;0.90;0.90;;;7.70;99.90;;;;;;5058921;28;20713;-78
2021/05/07 03:03:09;;;;;;;1.35;1.25;;;7.60;99.90;;;;;;5058463;28;20683;-79
2021/05/07 03:05:35;;;;;;;1.13;1.02;;;7.60;99.90;;;;;;5058119;28;20229;-80
2021/05/07 03:08:01;;;;;;;0.98;0.75;;;7.70;99.90;;;;;;5059141;28;20199;-79
2021/05/07 03:10:28;;;;;;;1.42;1.33;;;7.60;99.90;;;;;;5059135;28;20206;-80
2021/05/07 03:12:54;;;;;;;1.08;1.00;;;7.50;99.90;;;;;;5059091;28;20198;-79
2021/05/07 03:15:20;;;;;;;1.60;1.50;;;7.60;99.90;;;;;;5059137;28;20232;-80
2021/05/07 03:17:49;;;;;;;1.30;1.20;;;7.70;99.90;;;;;;5059029;28;20207;-80
2021/05/07 03:20:17;;;;;;;1.75;1.60;;;7.80;99.90;;;;;;5059398;28;20202;-79
2021/05/07 03:22:43;;;;;;;2.63;2.42;;;7.80;99.90;;;;;;5059103;28;20203;-79
2021/05/07 03:25:10;;;;;;;1.50;1.40;;;7.80;99.90;;;;;;5058967;28;20523;-81
2021/05/07 03:27:37;;;;;;;1.30;1.20;;;7.80;99.90;;;;;;5059014;28;20253;-80
2021/05/07 03:30:04;;;;;;;1.45;1.35;;;7.70;99.90;;;;;;5059008;28;20187;-78
2021/05/07 03:32:30;;;;;;;1.92;1.83;;;7.60;99.90;;;;;;5058687;28;20206;-79
2021/05/07 03:34:56;;;;;;;1.60;1.50;;;7.50;99.90;;;;;;5058138;28;20206;-79
2021/05/07 03:37:23;;;;;;;2.75;2.47;;;7.30;99.90;;;;;;5057699;28;20210;-78
2021/05/07 03:39:50;;;;;;;2.88;2.60;;;7.30;99.90;;;;;;5057188;28;20206;-81
2021/05/07 03:42:16;;;;;;;2.60;2.25;;;7.10;99.90;;;;;;5057257;28;20214;-79
2021/05/07 03:44:43;;;;;;;2.20;1.90;;;7.10;99.90;;;;;;5056928;28;20248;-80
2021/05/07 03:47:09;;;;;;;2.05;1.90;;;7.00;99.90;;;;;;5057546;28;20227;-79
2021/05/07 03:49:35;;;;;;;2.65;2.45;;;6.80;99.90;;;;;;5057795;28;20263;-79
2021/05/07 03:52:01;;;;;;;2.80;2.30;;;6.70;99.90;;;;;;5057450;28;20186;-80
2021/05/07 03:54:28;;;;;;;2.13;1.92;;;6.70;99.90;;;;;;5057388;28;20210;-80
2021/05/07 03:56:55;;;;;;;2.70;2.50;;;6.60;99.90;;;;;;5056855;28;20238;-79
2021/05/07 03:59:21;;;;;;;2.70;2.50;;;6.60;99.90;;;;;;5055715;28;20190;-79
2021/05/07 04:01:47;;;;;;;2.53;2.33;;;6.50;99.90;;;;;;5056715;28;20190;-79
2021/05/07 04:04:13;;;;;;;1.92;1.77;;;6.40;99.90;;;;;;5055697;28;20230;-78
2021/05/07 04:06:39;;;;;;;2.47;2.33;;;6.40;99.90;;;;;;5055140;28;20286;-80
2021/05/07 04:09:09;;;;;;;2.92;2.13;;;6.40;99.90;;;;;;5057106;28;20241;-80
2021/05/07 04:11:41;;;;;;;2.08;1.88;;;6.40;99.90;;;;;;5057093;28;20205;-80
2021/05/07 04:14:07;;;;;;;2.15;1.30;;;6.30;99.90;;;;;;5057699;28;20191;-80
2021/05/07 04:16:33;;;;;;;1.77;1.67;;;6.30;99.90;;;;;;5057245;28;20223;-81
2021/05/07 04:18:59;;;;;;;1.70;1.60;;;6.20;99.90;;;;;;5057131;28;20217;-81
2021/05/07 04:21:25;;;;;;;1.25;0.90;;;6.20;99.90;;;;;;5056634;28;20202;-81
2021/05/07 04:23:52;;;;;;;1.30;1.20;;;6.10;99.90;;;;;;5054973;28;20190;-82
2021/05/07 04:26:18;;;;;;;1.77;1.25;;;6.10;99.90;;;;;;5057578;28;20711;-82
2021/05/07 04:28:46;;;;;;;1.30;1.20;;;6.10;99.90;;;;;;5056905;28;20220;-83
2021/05/07 04:31:12;;;;;;;1.30;1.20;;;6.00;99.90;;;;;;5056404;28;20228;-82
2021/05/07 04:33:38;;;;;;;1.08;0.98;;;6.00;99.90;;;;;;5055687;28;20628;-82
2021/05/07 04:36:05;;;;;;;1.48;1.38;;;6.00;99.90;;;;;;5056831;28;20222;-82
2021/05/07 04:38:32;;;;;;;1.17;1.10;;;6.00;99.90;;;;;;5056465;28;20206;-82
2021/05/07 04:40:58;;;;;;;1.20;1.10;;;5.90;99.90;;;;;;5055600;28;20698;-83
2021/05/07 04:43:24;;;;;;;1.55;1.45;;;5.90;99.90;;;;;;5056274;28;20261;-82
2021/05/07 04:45:52;;;;;;;2.38;2.20;;;5.90;99.90;;;;;;5055435;28;20228;-83
2021/05/07 04:48:18;;;;;;;3.38;2.72;;;5.90;99.90;;;;;;5056672;28;20190;-83
2021/05/07 04:50:45;;;;;;;1.80;1.38;;;5.90;99.90;;;;;;5056877;28;20228;-82
2021/05/07 04:53:11;;;;;;;1.65;1.55;;;5.90;99.90;;;;;;5056189;28;20189;-83
2021/05/07 04:55:38;;;;;;;1.85;1.75;;;6.00;99.90;;;;;;5055654;28;20226;-83
2021/05/07 04:58:04;;;;;;;2.05;1.33;;;6.00;99.90;;;;;;5047732;28;20199;-84
2021/05/07 05:00:31;;;;;;;1.40;1.30;;;6.00;99.90;;;;;;5046005;28;20337;-86
2021/05/07 05:02:58;;;;;;;1.30;1.20;;;6.00;99.90;;;;;;5044784;28;20275;-85
2021/05/07 05:05:24;;;;;;;3.70;2.00;;;6.00;99.90;;;;;;5044034;28;20226;-86
2021/05/07 05:07:52;;;;;;;1.33;1.23;;;6.10;99.90;;;;;;5044745;28;20234;-85
2021/05/07 05:10:18;;;;;;;1.77;1.67;;;6.10;99.90;;;;;;5046049;28;20211;-85
2021/05/07 05:12:44;;;;;;;2.33;1.50;;;6.10;99.90;;;;;;5043304;28;20283;-84
2021/05/07 05:15:12;;;;;;;1.85;1.45;;;6.20;99.90;;;;;;5043613;28;20199;-86
2021/05/07 05:17:38;;;;;;;0.85;0.85;;;6.20;99.90;;;;;;5040798;28;20230;-84
2021/05/07 05:20:08;;;;;;;1.30;1.20;;;6.20;99.90;;;;;;5041833;28;20208;-83
2021/05/07 05:22:34;;;;;;;1.55;1.45;;;6.10;99.90;;;;;;5039698;28;20252;-84
2021/05/07 05:25:04;;;;;;;2.55;2.35;;;6.20;99.90;;;;;;5040596;28;20226;-84
2021/05/07 05:27:31;;;;;;;1.52;1.40;;;6.10;99.90;;;;;;5039706;28;20233;-84
2021/05/07 05:29:57;;;;;;;2.13;1.75;;;6.10;99.90;;;;;;5041103;28;20217;-85
2021/05/07 05:32:23;;;;;;;1.60;1.50;;;6.10;99.90;;;;;;5038622;28;20207;-85
2021/05/07 05:34:49;;;;;;;2.30;2.20;;;6.10;99.90;;;;;;5038497;28;20236;-85
2021/05/07 05:37:17;;;;;;;2.40;2.20;;;6.10;99.90;;;;;;5039753;28;20232;-86
2021/05/07 05:39:43;;;;;;;2.95;2.70;;;6.10;99.90;;;;;;5038971;28;20206;-85
2021/05/07 05:42:09;;;;;;;2.63;2.42;;;6.20;99.90;;;;;;5038131;28;20585;-84
2021/05/07 05:44:39;;;;;;;2.92;2.63;;;6.20;99.90;;;;;;5037279;28;20226;-85
2021/05/07 05:47:05;;;;;;;3.75;3.35;;;6.30;99.90;;;;;;5038445;28;20222;-84
2021/05/07 05:49:31;;;;;;;2.55;2.35;;;6.20;99.90;;;;;;5037514;28;20229;-88
2021/05/07 05:51:58;;;;;;;3.50;3.20;;;6.20;99.90;;;;;;5037925;28;20210;-87
2021/05/07 05:54:25;;;;;;;3.15;2.95;;;6.20;99.90;;;;;;5037819;28;20689;-87
2021/05/07 05:56:51;;;;;;;4.60;3.35;;;6.20;99.90;;;;;;5037943;28;20238;-87
2021/05/07 05:59:17;;;;;;;4.25;3.95;;;6.20;99.90;;;;;;5037797;28;20206;-86
2021/05/07 06:01:43;;;;;;;4.00;2.85;;;6.30;99.90;;;;;;5037846;28;20207;-87
2021/05/07 06:04:11;;;;;;;3.63;3.33;;;6.20;99.90;;;;;;5037897;28;20237;-86
2021/05/07 06:06:38;;;;;;;4.53;3.95;;;6.30;99.90;;;;;;5039482;28;20700;-88
2021/05/07 06:09:05;;;;;;;4.20;3.78;;;6.30;99.90;;;;;;5039814;28;20218;-85
2021/05/07 06:11:32;;;;;;;4.85;4.40;;;6.30;99.90;;;;;;5040651;28;20210;-84
2021/05/07 06:13:58;;;;;;;4.75;3.65;;;6.40;99.90;;;;;;5040559;28;20666;-85
2021/05/07 06:16:24;;;;;;;4.50;4.10;;;6.40;99.90;;;;;;5035636;28;20237;-84
2021/05/07 06:18:51;;;;;;;4.65;4.18;;;6.50;99.90;;;;;;5036773;28;20211;-83
2021/05/07 06:21:17;;;;;;;5.68;4.55;;;6.60;99.90;;;;;;5033691;28;20199;-83
2021/05/07 06:23:43;;;;;;;6.20;4.63;;;6.60;99.90;;;;;;5024513;28;20195;-84
2021/05/07 06:26:09;;;;;;;5.63;4.88;;;6.60;99.90;;;;;;5022957;28;20219;-83
2021/05/07 06:28:36;;;;;;;7.68;6.72;;;6.50;99.90;;;;;;5028263;28;20202;-84
2021/05/07 06:31:03;;;;;;;7.38;4.85;;;6.60;99.90;;;;;;5027082;28;20202;-84
2021/05/07 06:33:29;;;;;;;9.35;6.15;;;6.60;99.90;;;;;;5024918;28;20830;-84
2021/05/07 06:35:55;;;;;;;5.78;5.28;;;6.60;99.90;;;;;;5027331;28;20210;-84
2021/05/07 06:38:21;;;;;;;7.15;6.25;;;6.50;99.90;;;;;;5028621;28;20253;-83
2021/05/07 06:40:48;;;;;;;6.55;5.28;;;6.50;99.90;;;;;;5018737;28;20200;-84
2021/05/07 06:43:15;;;;;;;6.65;5.75;;;6.60;99.90;;;;;;5019029;28;20214;-84
2021/05/07 06:45:42;;;;;;;7.68;6.90;;;6.70;99.90;;;;;;5018340;28;20223;-84
2021/05/07 06:48:08;;;;;;;9.38;6.70;;;6.70;99.90;;;;;;5020986;28;20214;-82
2021/05/07 06:50:35;;;;;;;7.53;6.32;;;6.60;99.90;;;;;;5021220;28;20218;-81
2021/05/07 06:53:01;;;;;;;8.13;6.13;;;6.70;99.90;;;;;;5033191;28;20203;-81
2021/05/07 06:55:27;;;;;;;10.00;7.10;;;6.90;99.90;;;;;;5031239;28;20211;-81
2021/05/07 06:57:53;;;;;;;11.38;6.18;;;7.00;99.90;;;;;;5028319;28;20276;-81
2021/05/07 07:00:20;;;;;;;7.15;6.40;;;7.10;99.90;;;;;;5028882;28;20207;-81
2021/05/07 07:02:47;;;;;;;8.75;6.82;;;7.20;99.90;;;;;;5023411;28;20223;-81
2021/05/07 07:05:13;;;;;;;8.95;6.38;;;7.20;99.90;;;;;;5029165;28;20231;-81
2021/05/07 07:07:40;;;;;;;8.93;8.15;;;7.20;99.90;;;;;;5034379;28;20229;-81
2021/05/07 07:10:07;;;;;;;7.57;6.38;;;7.20;99.90;;;;;;5044015;28;20217;-81
2021/05/07 07:12:34;;;;;;;7.88;7.07;;;7.20;99.90;;;;;;5045584;28;20202;-81
2021/05/07 07:15:01;;;;;;;8.68;7.55;;;7.20;99.90;;;;;;5043870;28;20852;-82
2021/05/07 07:17:27;;;;;;;9.15;8.30;;;7.10;99.90;;;;;;5043386;28;20222;-82
2021/05/07 07:19:54;;;;;;;8.30;7.30;;;7.10;99.90;;;;;;5047953;28;20206;-81
2021/05/07 07:22:20;;;;;;;9.60;8.05;;;7.10;99.90;;;;;;5046121;28;20236;-81
2021/05/07 07:24:49;;;;;;;10.68;8.35;;;7.10;99.90;;;;;;5038561;28;20762;-81
2021/05/07 07:27:15;;;;;;;8.65;7.75;;;7.10;99.90;;;;;;5019204;28;20261;-83
2021/05/07 07:29:42;;;;;;;10.48;7.72;;;7.10;99.90;;;;;;5036110;28;20296;-82
2021/05/07 07:32:08;;;;;;;8.23;7.50;;;7.10;99.90;;;;;;5016172;28;20217;-83
2021/05/07 07:34:34;;;;;;;9.05;8.15;;;7.00;99.90;;;;;;5016754;28;20203;-81
2021/05/07 07:37:01;;;;;;;9.10;8.27;;;7.00;99.90;;;;;;5017012;28;20246;-83
2021/05/07 07:39:27;;;;;;;9.63;8.73;;;7.00;99.90;;;;;;5017217;28;20211;-81
2021/05/07 07:41:54;;;;;;;13.50;10.52;;;7.00;99.90;;;;;;5017987;28;20215;-80
2021/05/07 07:44:20;;;;;;;8.20;7.40;;;7.10;99.90;;;;;;5018460;28;20223;-80
2021/05/07 07:46:46;;;;;;;11.07;8.18;;;7.10;99.90;;;;;;5021997;28;20227;-79
2021/05/07 07:49:12;;;;;;;11.75;10.63;;;7.10;99.90;;;;;;5022975;28;20207;-81
2021/05/07 07:51:39;;;;;;;11.48;10.35;;;7.20;99.90;;;;;;5021822;28;20230;-80
2021/05/07 07:54:08;;;;;;;9.77;8.80;;;7.30;99.90;;;;;;5020408;28;20206;-80
2021/05/07 07:56:34;;;;;;;9.75;8.75;;;7.40;99.90;;;;;;5023009;28;20318;-79
2021/05/07 07:59:01;;;;;;;9.60;8.73;;;7.40;99.90;;;;;;5021521;28;20203;-81
2021/05/07 08:01:27;;;;;;;12.57;9.35;;;7.60;99.90;;;;;;5021357;28;20211;-79
2021/05/07 08:03:55;;;;;;;9.30;8.50;;;7.70;99.90;;;;;;5021702;28;20206;-79
2021/05/07 08:06:21;;;;;;;9.60;8.70;;;7.80;99.90;;;;;;5021352;28;20231;-79
2021/05/07 08:08:48;;;;;;;8.55;7.75;;;8.00;99.90;;;;;;5022033;28;20203;-79
2021/05/07 08:11:15;;;;;;;8.95;8.05;;;8.10;99.90;;;;;;5021500;28;20214;-78
2021/05/07 08:13:41;;;;;;;9.82;8.75;;;8.30;99.90;;;;;;5022669;28;20230;-81
2021/05/07 08:16:07;;;;;;;8.40;7.60;;;8.30;99.90;;;;;;5022030;28;20227;-79
2021/05/07 08:18:33;;;;;;;8.10;7.40;;;8.50;99.90;;;;;;5021651;28;20219;-79
2021/05/07 08:21:00;;;;;;;6.78;6.28;;;8.50;99.90;;;;;;5022091;28;20213;-80
2021/05/07 08:23:26;;;;;;;8.85;7.15;;;8.50;99.90;;;;;;5021125;28;20270;-79
2021/05/07 08:25:52;;;;;;;7.85;7.15;;;8.50;99.90;;;;;;5021608;28;20611;-79
2021/05/07 08:28:19;;;;;;;10.02;6.95;;;8.50;99.90;;;;;;5021879;28;20573;-79
2021/05/07 08:30:45;;;;;;;6.28;5.72;;;8.60;99.90;;;;;;5021120;28;20273;-78
2021/05/07 08:33:12;;;;;;;15.07;7.05;;;8.60;99.90;;;;;;5020842;28;20203;-80
2021/05/07 08:35:38;;;;;;;7.47;6.90;;;8.50;99.90;;;;;;5020139;28;20234;-78
2021/05/07 08:38:04;;;;;;;6.28;5.70;;;8.50;99.90;;;;;;5021079;28;20215;-79
2021/05/07 08:40:31;;;;;;;6.50;5.90;;;8.40;99.90;;;;;;5022915;28;20583;-78
2021/05/07 08:42:59;;;;;;;7.35;6.38;;;8.40;99.90;;;;;;5021384;28;20211;-79
2021/05/07 08:45:26;;;;;;;6.68;6.07;;;8.50;99.90;;;;;;5019967;28;20222;-79
2021/05/07 08:47:53;;;;;;;6.65;6.00;;;8.70;99.90;;;;;;5020130;28;20288;-79
2021/05/07 08:50:20;;;;;;;5.50;5.10;;;8.80;99.90;;;;;;5018731;28;20203;-79
2021/05/07 08:52:46;;;;;;;5.30;4.90;;;8.90;99.90;;;;;;5018673;28;20210;-80
2021/05/07 08:55:13;;;;;;;5.18;4.68;;;9.00;99.90;;;;;;5018680;28;20206;-79
2021/05/07 08:57:40;;;;;;;5.30;4.90;;;9.00;99.90;;;;;;5026795;28;20320;-84
2021/05/07 09:00:09;;;;;;;4.88;4.57;;;9.10;99.90;;;;;;5033314;28;20204;-82
2021/05/07 09:02:37;;;;;;;5.15;4.75;;;9.10;99.90;;;;;;5031783;28;20199;-81
2021/05/07 09:05:07;;;;;;;5.35;4.88;;;9.20;99.90;;;;;;5038002;28;20234;-82
2021/05/07 09:07:33;;;;;;;6.05;5.45;;;9.20;99.90;;;;;;5046359;28;20288;-81
2021/05/07 09:10:01;;;;;;;4.40;4.10;;;9.10;99.90;;;;;;5042645;28;20207;-82
2021/05/07 09:12:36;;;;;;;5.55;5.05;;;9.20;99.90;;;;;;5044140;28;20453;-82
2021/05/07 09:15:04;;;;;;;4.60;4.20;;;9.20;99.90;;;;;;5042080;28;20201;-84
2021/05/07 09:17:31;;;;;;;4.85;4.35;;;9.30;99.90;;;;;;5045569;28;20230;-82
2021/05/07 09:20:12;;;;;;;5.40;5.00;;;9.30;99.90;;;;;;5044231;28;20747;-82
2021/05/07 09:22:39;;;;;;;7.80;5.50;;;9.10;99.90;;;;;;5041918;28;20213;-82
2021/05/07 09:25:09;;;;;;;5.28;4.88;;;9.10;99.90;;;;;;5045022;28;20229;-82
2021/05/07 09:27:36;;;;;;;4.95;4.55;;;9.10;99.90;;;;;;5042731;28;20222;-82
2021/05/07 09:30:03;;;;;;;4.75;4.35;;;9.20;99.90;;;;;;5044702;28;20235;-82
2021/05/07 09:32:32;;;;;;;5.18;3.50;;;9.30;99.90;;;;;;5044601;28;20210;-81
2021/05/07 09:35:12;;;;;;;4.40;4.07;;;9.40;99.90;;;;;;5045246;28;20208;-82
2021/05/07 09:37:39;;;;;;;4.45;4.05;;;9.50;99.90;;;;;;5043148;28;20222;-80
2021/05/07 09:40:11;;;;;;;5.68;4.55;;;9.60;99.90;;;;;;5041472;28;20217;-79
2021/05/07 09:42:37;;;;;;;5.28;4.72;;;9.60;99.90;;;;;;5040744;28;20219;-81
2021/05/07 09:45:04;;;;;;;3.67;3.33;;;9.60;99.90;;;;;;5041775;28;20292;-81
2021/05/07 09:47:31;;;;;;;4.63;4.22;;;9.50;99.90;;;;;;5039433;28;20236;-79
2021/05/07 09:50:03;;;;;;;6.30;4.60;;;9.40;99.90;;;;;;5039755;28;20592;-79
2021/05/07 09:52:30;;;;;;;5.10;4.70;;;9.40;99.90;;;;;;5043610;28;20198;-80
2021/05/07 09:54:56;;;;;;;4.38;4.00;;;9.40;99.90;;;;;;5041117;28;20260;-80
2021/05/07 09:57:23;;;;;;;4.30;3.97;;;9.40;99.90;;;;;;5039225;28;20496;-78
2021/05/07 09:59:50;;;;;;;4.95;4.45;;;9.60;99.90;;;;;;5041915;28;20207;-81
2021/05/07 10:02:16;;;;;;;3.97;3.67;;;9.70;99.90;;;;;;5041324;28;20207;-79
2021/05/07 10:04:42;;;;;;;6.45;4.05;;;9.80;99.90;;;;;;5040176;28;20226;-80
2021/05/07 10:07:08;;;;;;;4.05;3.75;;;9.50;99.70;;;;;;5059548;28;20238;-79
2021/05/07 10:09:36;;;;;;;4.00;3.63;;;9.20;99.90;;;;;;5063037;28;20202;-79
2021/05/07 10:12:06;;;;;;;4.10;3.80;;;9.10;99.90;;;;;;5053887;28;20206;-80
2021/05/07 10:14:40;;;;;;;3.45;3.15;;;9.00;99.10;;;;;;5041399;28;20214;-81
2021/05/07 10:17:10;;;;;;;3.80;3.50;;;9.00;99.80;;;;;;5040996;28;20230;-80
2021/05/07 10:19:43;;;;;;;3.72;3.38;;;9.00;98.90;;;;;;5039260;28;20207;-80
2021/05/07 10:22:11;;;;;;;3.38;3.13;;;9.30;99.90;;;;;;5040840;28;20210;-80
2021/05/07 10:24:39;;;;;;;4.63;4.28;;;9.50;98.90;;;;;;5041409;28;20229;-78
2021/05/07 10:27:16;;;;;;;4.10;3.70;;;9.40;98.20;;;;;;5041691;28;20229;-80
2021/05/07 10:29:55;;;;;;;3.35;3.00;;;9.50;97.10;;;;;;5042251;28;20211;-80
2021/05/07 10:32:36;;;;;;;3.22;2.95;;;9.60;98.00;;;;;;5042458;28;20210;-79
2021/05/07 10:35:03;;;;;;;3.30;3.05;;;9.90;97.50;;;;;;5045122;28;20218;-80
2021/05/07 10:37:41;;;;;;;1.97;1.87;;;10.10;98.70;;;;;;5044843;28;20600;-79
2021/05/07 10:40:12;;;;;;;3.03;2.83;;;10.20;95.20;;;;;;5044283;28;20460;-79
2021/05/07 10:42:38;;;;;;;4.07;2.93;;;10.10;96.90;;;;;;5042389;28;20709;-79
2021/05/07 10:45:06;;;;;;;7.43;3.15;;;10.20;95.70;;;;;;5040573;28;20484;-81
2021/05/07 10:47:34;;;;;;;3.05;2.75;;;10.10;95.50;;;;;;5042171;28;20233;-79
2021/05/07 10:50:11;;;;;;;3.00;2.80;;;9.80;95.60;;;;;;5041604;28;20694;-79
2021/05/07 10:52:38;;;;;;;4.00;3.10;;;9.60;96.90;;;;;;5042465;28;20317;-80
2021/05/07 10:55:07;;;;;;;3.97;3.67;;;9.70;97.20;;;;;;5044237;28;20223;-77
2021/05/07 10:57:36;;;;;;;2.75;2.65;;;9.80;98.80;;;;;;5041639;28;20252;-78
2021/05/07 11:00:07;;;;;;;3.70;3.45;;;10.10;97.40;;;;;;5040417;28;20246;-79
2021/05/07 11:02:43;;;;;;;2.88;2.67;;;10.20;96.40;;;;;;5041488;28;20213;-78
2021/05/07 11:05:10;;;;;;;2.83;2.63;;;10.10;95.00;;;;;;5042096;28;20232;-78
2021/05/07 11:07:37;;;;;;;3.20;3.00;;;9.90;96.00;;;;;;5042138;28;20288;-77
2021/05/07 11:10:05;;;;;;;7.07;3.63;;;9.80;95.80;;;;;;5040672;28;20235;-80
2021/05/07 11:12:31;;;;;;;3.72;3.42;;;9.90;97.40;;;;;;5038922;28;20212;-79
2021/05/07 11:14:58;;;;;;;3.63;3.33;;;10.10;96.50;;;;;;5040061;28;20227;-78
2021/05/07 11:17:24;;;;;;;2.80;2.60;;;10.40;96.70;;;;;;5040058;28;20235;-78
2021/05/07 11:19:51;;;;;;;4.00;3.70;;;10.60;96.40;;;;;;5039765;28;20454;-78
2021/05/07 11:22:23;;;;;;;3.08;2.88;;;10.90;96.80;;;;;;5039160;28;20205;-79
2021/05/07 11:24:50;;;;;;;4.40;4.03;;;10.80;94.90;;;;;;5039828;28;20246;-78
2021/05/07 11:27:20;;;;;;;3.33;3.13;;;10.40;94.30;;;;;;5038582;28;20478;-78
2021/05/07 11:29:46;;;;;;;5.75;3.45;;;10.40;94.90;;;;;;5040168;28;20240;-78
2021/05/07 11:32:16;;;;;;;2.95;2.75;;;10.30;95.90;;;;;;5039628;28;20671;-78
2021/05/07 11:34:49;;;;;;;3.23;3.00;;;10.50;97.20;;;;;;5039324;28;20215;-78
2021/05/07 11:37:15;;;;;;;3.60;3.30;;;10.80;96.40;;;;;;5039055;28;20466;-78
2021/05/07 11:39:41;;;;;;;3.57;3.10;;;11.30;99.20;;;;;;5039758;28;20454;-79
2021/05/07 11:42:10;;;;;;;3.80;3.50;;;11.70;96.90;;;;;;5039052;28;20500;-78
2021/05/07 11:44:47;;;;;;;2.80;2.60;;;12.10;98.10;;;;;;5039533;28;20468;-78
2021/05/07 11:47:14;;;;;;;4.03;3.73;;;12.40;97.60;;;;;;5038404;28;20486;-78
2021/05/07 11:49:47;;;;;;;4.20;3.80;;;12.70;95.70;;;;;;5039093;28;20484;-78
2021/05/07 11:52:14;;;;;;;3.43;3.20;;;13.10;95.50;;;;;;5038429;28;20496;-78
2021/05/07 11:54:41;;;;;;;2.90;2.70;;;13.30;95.30;;;;;;5037712;28;20535;-78
2021/05/07 11:57:08;;;;;;;3.23;3.00;;;13.50;95.10;;;;;;5036665;28;20488;-78
2021/05/07 11:59:34;;;;;;;3.77;3.37;;;13.30;93.40;;;;;;5038612;28;20563;-78
2021/05/07 12:02:05;;;;;;;3.23;3.00;;;12.70;91.10;;;;;;5039020;28;20464;-78
2021/05/07 12:04:42;;;;;;;2.90;2.70;;;12.50;93.30;;;;;;5039854;28;20489;-80
2021/05/07 12:07:19;;;;;;;3.37;3.07;;;13.00;91.30;;;;;;5049370;28;20487;-79
2021/05/07 12:09:47;;;;;;;4.00;3.70;;;13.50;93.30;;;;;;5050022;28;20441;-79
2021/05/07 12:12:13;;;;;;;3.43;2.60;;;13.60;90.10;;;;;;5049300;28;20449;-77
2021/05/07 12:14:45;;;;;;;3.97;2.40;;;13.50;84.50;;;;;;5051594;28;20521;-78
2021/05/07 12:17:12;;;;;;;3.70;3.13;;;13.10;81.80;;;;;;5051854;28;20531;-79
2021/05/07 12:19:40;;;;;;;3.40;3.10;;;13.20;82.40;;;;;;5051749;28;20443;-77
2021/05/07 12:22:06;;;;;;;2.53;2.33;;;13.20;78.80;;;;;;5048315;28;20460;-77
2021/05/07 12:24:32;;;;;;;3.10;2.80;;;13.00;79.00;;;;;;5051274;28;20477;-77
2021/05/07 12:26:58;;;;;;;3.57;3.27;;;12.80;76.90;;;;;;5053625;28;20471;-78
2021/05/07 12:29:34;;;;;;;2.87;2.67;;;12.60;76.20;;;;;;5053893;28;20460;-78
2021/05/07 12:32:03;;;;;;;5.13;2.97;;;12.20;76.50;;;;;;5051240;28;20542;-77
2021/05/07 12:34:29;;;;;;;2.27;2.17;;;11.80;74.70;;;;;;5055736;28;20450;-79
2021/05/07 12:37:01;;;;;;;5.73;3.23;;;11.70;74.20;;;;;;5054893;28;20468;-79
2021/05/07 12:39:29;;;;;;;3.17;2.77;;;11.20;76.80;;;;;;5054329;28;20458;-78
2021/05/07 12:41:56;;;;;;;3.43;3.23;;;10.80;77.40;;;;;;5053207;28;20451;-77
2021/05/07 12:44:23;;;;;;;3.70;2.33;;;10.50;78.30;;;;;;5053392;28;20462;-79
2021/05/07 12:46:49;;;;;;;2.63;2.42;;;10.30;80.10;;;;;;5054091;28;20235;-79
2021/05/07 12:49:15;;;;;;;2.20;2.10;;;10.20;81.10;;;;;;5055198;28;20180;-79
2021/05/07 12:51:42;;;;;;;4.50;3.20;;;11.00;81.10;;;;;;5053204;28;20444;-79
2021/05/07 12:54:09;;;;;;;4.30;3.10;;;11.80;79.70;;;;;;5054257;28;20487;-79
2021/05/07 12:56:40;;;;;;;3.43;3.13;;;12.60;75.70;;;;;;5054374;28;20475;-80